KFOK/FOK METAR and TAF weather

Enter ICAO airport designator
Station Type Date Time Source
KFOK METAR 2019/08/21 01:53 UTC NOAA

KFOK 210153Z 00000KT 10SM CLR 19/16 A3007 RMK AO2 SLP183 T01940161


Station Type Date Time Source
KFOK Decoded METAR 2019/08/21 01:53 UTC NOAA

Station name not available
Aug 20, 2019 - 09:53 PM EDT / 2019.08.21 0153 UTC
Wind: Calm:0
Visibility: 10 mile(s):0
Sky conditions: clear
Temperature: 66.9 F (19.4 C)
Dew Point: 61.0 F (16.1 C)
Relative Humidity: 81%
Pressure (altimeter): 30.07 in. Hg (1018 hPa)
ob: KFOK 210153Z 00000KT 10SM CLR 19/16 A3007 RMK AO2 SLP183 T01940161
cycle: 2

Station Type Date Time Source
KFOK TAF UTC NOAA

Error!

Example: see airport list